Time;durP1;ratioP1;P1;durP2;ratioP2;P2;SDS_P1;SDS_P2;PMS_P1;PMS_P2;Temp;Humidity;BMP_temperature;BMP_pressure;BME280_temperature;BME280_humidity;BME280_pressure;Samples;Min_cycle;Max_cycle;Signal;HPM_P1;HPM_P2
2023/11/17 00:02:16;;;;;;;6.67;4.40;;;;;;;;;;4853135;29;20660;-84
2023/11/17 00:05:21;;;;;;;5.87;4.40;;;;;;;;;;4880094;29;20199;-83
2023/11/17 00:08:28;;;;;;;4.83;4.20;;;;;;;;;;4873412;29;20190;-84
2023/11/17 00:11:34;;;;;;;4.00;3.60;;;;;;;;;;4851369;29;20629;-84
2023/11/17 00:14:39;;;;;;;4.20;3.57;;;;;;;;;;4872610;29;20187;-85
2023/11/17 00:17:43;;;;;;;5.00;3.50;;;;;;;;;;4846153;29;20583;-84
2023/11/17 00:20:47;;;;;;;6.33;4.23;;;;;;;;;;4865388;29;20183;-84
2023/11/17 00:23:51;;;;;;;4.67;3.87;;;;;;;;;;4846513;29;20199;-84
2023/11/17 00:26:57;;;;;;;6.83;4.00;;;;;;;;;;4865539;29;20227;-84
2023/11/17 00:30:01;;;;;;;4.40;4.00;;;;;;;;;;4867065;29;20222;-84
2023/11/17 00:33:08;;;;;;;5.13;4.03;;;;;;;;;;4855307;29;20199;-84
2023/11/17 00:36:15;;;;;;;5.20;3.83;;;;;;;;;;4865559;29;20222;-84
2023/11/17 00:39:21;;;;;;;5.00;3.63;;;;;;;;;;4858823;29;20191;-84
2023/11/17 00:42:26;;;;;;;5.07;3.60;;;;;;;;;;4854063;29;20191;-84
2023/11/17 00:45:31;;;;;;;5.63;4.10;;;;;;;;;;4869682;29;20191;-84
2023/11/17 00:48:37;;;;;;;4.93;4.30;;;;;;;;;;4850938;29;20187;-85
2023/11/17 00:51:42;;;;;;;4.50;3.83;;;;;;;;;;4853807;29;20203;-84
2023/11/17 00:54:47;;;;;;;4.07;3.67;;;;;;;;;;4863893;29;20190;-84
2023/11/17 00:58:03;;;;;;;4.17;2.70;;;;;;;;;;5125509;27;20853;-84
2023/11/17 01:01:08;;;;;;;3.73;2.80;;;;;;;;;;5121416;28;20189;-84
2023/11/17 01:04:14;;;;;;;3.40;2.60;;;;;;;;;;5108975;28;20178;-84
2023/11/17 01:07:18;;;;;;;2.90;2.30;;;;;;;;;;5119771;28;20205;-84
2023/11/17 01:10:23;;;;;;;2.30;2.10;;;;;;;;;;5102302;28;20177;-84
2023/11/17 01:13:28;;;;;;;2.70;1.80;;;;;;;;;;5108624;28;20174;-84
2023/11/17 01:16:32;;;;;;;2.60;1.60;;;;;;;;;;5107374;28;20217;-84
2023/11/17 01:19:40;;;;;;;1.60;1.10;;;;;;;;;;5119282;28;20190;-83
2023/11/17 01:22:44;;;;;;;1.90;1.00;;;;;;;;;;5123937;28;20175;-84
2023/11/17 01:25:48;;;;;;;2.73;0.87;;;;;;;;;;5112451;28;20210;-84
2023/11/17 01:28:53;;;;;;;1.30;1.00;;;;;;;;;;5121854;28;20186;-84
2023/11/17 01:31:57;;;;;;;1.40;1.23;;;;;;;;;;5125293;28;20178;-84
2023/11/17 01:35:03;;;;;;;1.40;1.00;;;;;;;;;;5111434;28;20178;-84
2023/11/17 01:38:08;;;;;;;1.80;0.90;;;;;;;;;;5111096;28;20202;-84
2023/11/17 01:41:12;;;;;;;0.90;0.80;;;;;;;;;;5123870;28;20182;-84
2023/11/17 01:44:17;;;;;;;0.80;0.80;;;;;;;;;;5106321;28;20186;-84
2023/11/17 01:47:21;;;;;;;1.07;0.83;;;;;;;;;;5118029;28;20206;-84
2023/11/17 01:50:26;;;;;;;2.67;1.00;;;;;;;;;;5106146;28;20566;-84
2023/11/17 01:53:31;;;;;;;1.10;0.90;;;;;;;;;;5117458;28;20178;-84
2023/11/17 01:56:36;;;;;;;0.80;0.70;;;;;;;;;;5105290;28;20230;-84
2023/11/17 01:59:41;;;;;;;0.97;0.60;;;;;;;;;;5120902;28;20183;-84
2023/11/17 02:02:48;;;;;;;1.00;0.67;;;;;;;;;;5096934;28;20175;-84
2023/11/17 02:06:05;;;;;;;1.27;0.70;;;;;;;;;;5107583;28;20222;-84
2023/11/17 02:09:21;;;;;;;1.13;0.60;;;;;;;;;;5095658;28;20176;-84
2023/11/17 02:13:25;;;;;;;0.73;0.60;;;;;;;;;;5106378;28;20183;-84
2023/11/17 02:16:32;;;;;;;0.80;0.80;;;;;;;;;;5071373;28;20732;-84
2023/11/17 02:19:42;;;;;;;1.00;0.77;;;;;;;;;;5096994;28;20183;-84
2023/11/17 02:22:48;;;;;;;2.10;1.00;;;;;;;;;;5089882;28;20183;-83
2023/11/17 02:26:17;;;;;;;0.70;0.67;;;;;;;;;;5090553;28;20215;-84
2023/11/17 02:29:44;;;;;;;0.80;0.70;;;;;;;;;;5102127;28;20172;-84
2023/11/17 02:32:50;;;;;;;0.93;0.50;;;;;;;;;;5102591;28;20547;-84
2023/11/17 02:35:55;;;;;;;0.63;0.63;;;;;;;;;;5103456;28;20217;-84
2023/11/17 02:39:25;;;;;;;0.70;0.60;;;;;;;;;;5091309;28;20632;-84
2023/11/17 02:42:31;;;;;;;0.63;0.50;;;;;;;;;;5101496;28;20174;-84
2023/11/17 02:45:38;;;;;;;1.07;0.50;;;;;;;;;;5077945;28;20183;-84
2023/11/17 02:48:45;;;;;;;0.97;0.60;;;;;;;;;;5088475;28;20171;-83
2023/11/17 02:51:52;;;;;;;0.90;0.50;;;;;;;;;;5089742;28;20194;-84
2023/11/17 02:54:59;;;;;;;0.77;0.77;;;;;;;;;;5079144;28;20183;-84
2023/11/17 02:58:04;;;;;;;0.73;0.70;;;;;;;;;;5089292;28;20202;-84
2023/11/17 03:01:08;;;;;;;0.80;0.60;;;;;;;;;;5103276;28;20186;-84
2023/11/17 03:04:16;;;;;;;0.80;0.53;;;;;;;;;;5102903;28;20178;-84
2023/11/17 03:07:21;;;;;;;0.60;0.60;;;;;;;;;;5102472;28;20206;-83
2023/11/17 03:10:25;;;;;;;1.37;0.63;;;;;;;;;;5102590;28;20627;-84
2023/11/17 03:13:31;;;;;;;0.60;0.60;;;;;;;;;;5090278;28;20628;-84
2023/11/17 03:16:37;;;;;;;0.67;0.60;;;;;;;;;;5090325;28;20218;-84
2023/11/17 03:19:41;;;;;;;0.60;0.60;;;;;;;;;;5098847;28;20187;-84
2023/11/17 03:22:45;;;;;;;0.60;0.60;;;;;;;;;;5100319;28;20179;-84
2023/11/17 03:25:55;;;;;;;1.80;0.60;;;;;;;;;;5076534;28;20214;-84
2023/11/17 03:29:04;;;;;;;1.00;0.80;;;;;;;;;;5099590;28;20171;-84
2023/11/17 03:32:11;;;;;;;2.57;0.70;;;;;;;;;;5099481;28;20174;-84
2023/11/17 03:35:20;;;;;;;0.70;0.70;;;;;;;;;;5088365;28;20190;-84
2023/11/17 03:38:24;;;;;;;0.83;0.70;;;;;;;;;;5088561;28;20194;-84
2023/11/17 03:41:30;;;;;;;1.87;0.90;;;;;;;;;;5101820;28;20182;-84
2023/11/17 03:44:34;;;;;;;0.70;0.70;;;;;;;;;;5100920;28;20174;-84
2023/11/17 03:47:39;;;;;;;0.83;0.70;;;;;;;;;;5099296;28;20214;-84
2023/11/17 03:50:43;;;;;;;0.87;0.70;;;;;;;;;;5087970;28;20179;-84
2023/11/17 03:53:48;;;;;;;0.70;0.70;;;;;;;;;;5087243;28;20186;-83
2023/11/17 03:56:53;;;;;;;1.30;0.90;;;;;;;;;;5098743;28;20222;-83
2023/11/17 03:59:59;;;;;;;0.87;0.80;;;;;;;;;;5099733;28;20194;-84
2023/11/17 04:03:04;;;;;;;1.23;0.80;;;;;;;;;;5087341;28;20183;-84
2023/11/17 04:06:08;;;;;;;2.07;0.70;;;;;;;;;;5089744;28;20570;-84
2023/11/17 04:09:15;;;;;;;3.50;1.00;;;;;;;;;;5099547;28;20175;-84
2023/11/17 04:12:20;;;;;;;0.70;0.70;;;;;;;;;;5087340;28;20179;-84
2023/11/17 04:15:24;;;;;;;0.77;0.70;;;;;;;;;;5087477;28;20182;-84
2023/11/17 04:18:28;;;;;;;0.80;0.57;;;;;;;;;;5087207;28;20206;-83
2023/11/17 04:21:33;;;;;;;0.97;0.70;;;;;;;;;;5087713;28;20186;-84
2023/11/17 04:24:38;;;;;;;0.93;0.70;;;;;;;;;;5074355;28;20183;-84
2023/11/17 04:27:43;;;;;;;0.80;0.80;;;;;;;;;;5094904;28;20211;-84
2023/11/17 04:30:49;;;;;;;0.70;0.70;;;;;;;;;;5090916;28;20186;-83
2023/11/17 04:33:54;;;;;;;1.17;0.80;;;;;;;;;;5097624;28;20175;-84
2023/11/17 04:36:58;;;;;;;0.73;0.60;;;;;;;;;;5097958;28;20590;-84
2023/11/17 04:40:02;;;;;;;0.90;0.80;;;;;;;;;;5098634;28;20187;-84
2023/11/17 04:43:07;;;;;;;1.17;0.90;;;;;;;;;;5101802;28;20183;-83
2023/11/17 04:46:18;;;;;;;1.13;1.03;;;;;;;;;;5098930;28;20218;-84
2023/11/17 04:49:23;;;;;;;1.10;1.00;;;;;;;;;;5098354;28;20179;-84
2023/11/17 04:52:27;;;;;;;0.80;0.73;;;;;;;;;;5098885;28;20178;-83
2023/11/17 04:55:31;;;;;;;0.83;0.80;;;;;;;;;;5096965;28;20174;-84
2023/11/17 04:58:38;;;;;;;2.80;0.90;;;;;;;;;;5072767;28;20199;-83
2023/11/17 05:01:42;;;;;;;0.87;0.80;;;;;;;;;;5096434;28;20186;-83
2023/11/17 05:04:46;;;;;;;1.23;0.80;;;;;;;;;;5096518;28;20229;-84
2023/11/17 05:07:50;;;;;;;1.03;0.93;;;;;;;;;;5085226;28;20183;-84
2023/11/17 05:10:55;;;;;;;1.47;1.00;;;;;;;;;;5098163;28;20187;-84
2023/11/17 05:14:00;;;;;;;1.23;0.93;;;;;;;;;;5097585;28;20190;-84
2023/11/17 05:17:09;;;;;;;1.90;1.10;;;;;;;;;;5099121;28;20218;-84
2023/11/17 05:20:15;;;;;;;1.83;1.00;;;;;;;;;;5099121;28;20183;-84
2023/11/17 05:23:20;;;;;;;2.10;1.10;;;;;;;;;;5076181;28;20178;-84
2023/11/17 05:26:24;;;;;;;1.20;0.90;;;;;;;;;;5099012;28;20211;-84
2023/11/17 05:29:28;;;;;;;1.10;1.00;;;;;;;;;;5099606;28;20179;-84
2023/11/17 05:32:33;;;;;;;1.27;1.17;;;;;;;;;;5087604;28;20174;-84
2023/11/17 05:35:40;;;;;;;1.20;1.10;;;;;;;;;;5098601;28;20179;-84
2023/11/17 05:38:44;;;;;;;1.20;1.10;;;;;;;;;;5098981;28;20211;-84
2023/11/17 05:41:48;;;;;;;1.27;1.10;;;;;;;;;;5098548;28;20191;-84
2023/11/17 05:44:52;;;;;;;1.67;1.00;;;;;;;;;;5102431;28;20186;-84
2023/11/17 05:47:57;;;;;;;1.30;1.20;;;;;;;;;;5102694;28;20179;-84
2023/11/17 05:51:05;;;;;;;2.00;1.33;;;;;;;;;;5101733;28;20179;-84
2023/11/17 05:54:10;;;;;;;1.90;1.50;;;;;;;;;;5090717;28;20179;-84
2023/11/17 05:57:19;;;;;;;1.50;1.40;;;;;;;;;;5089806;28;20225;-84
2023/11/17 06:00:27;;;;;;;2.10;1.60;;;;;;;;;;5079739;28;20175;-84
2023/11/17 06:03:31;;;;;;;2.10;1.90;;;;;;;;;;5103438;28;20182;-84
2023/11/17 06:06:36;;;;;;;2.10;1.90;;;;;;;;;;5100939;28;20218;-84
2023/11/17 06:09:42;;;;;;;2.30;2.10;;;;;;;;;;5102380;28;20567;-84
2023/11/17 06:12:48;;;;;;;2.83;2.00;;;;;;;;;;5103256;28;20187;-84
2023/11/17 06:15:52;;;;;;;2.60;2.37;;;;;;;;;;5103037;28;20218;-84
2023/11/17 06:18:56;;;;;;;2.73;2.50;;;;;;;;;;5102960;28;20198;-84
2023/11/17 06:22:00;;;;;;;4.10;2.60;;;;;;;;;;5090788;28;20638;-84
2023/11/17 06:25:05;;;;;;;3.33;2.70;;;;;;;;;;5093360;28;20183;-84
2023/11/17 06:28:09;;;;;;;3.83;3.20;;;;;;;;;;5103454;28;20171;-85
2023/11/17 06:31:13;;;;;;;3.57;2.80;;;;;;;;;;5102417;28;20187;-84
2023/11/17 06:34:18;;;;;;;2.77;2.47;;;;;;;;;;5076147;28;20178;-84
2023/11/17 06:37:23;;;;;;;3.50;2.90;;;;;;;;;;5101319;28;20218;-84
2023/11/17 06:40:27;;;;;;;2.87;2.60;;;;;;;;;;5089157;28;20187;-84
2023/11/17 06:43:31;;;;;;;3.30;3.00;;;;;;;;;;5100934;28;20179;-84
2023/11/17 06:46:37;;;;;;;3.53;3.03;;;;;;;;;;5103110;28;20218;-84
2023/11/17 06:49:42;;;;;;;3.37;3.07;;;;;;;;;;5091366;28;20178;-84
2023/11/17 06:52:47;;;;;;;3.67;3.03;;;;;;;;;;5102387;28;20183;-84
2023/11/17 06:55:51;;;;;;;3.20;2.73;;;;;;;;;;5103938;28;20222;-84
2023/11/17 06:58:56;;;;;;;31.87;17.93;;;;;;;;;;5109066;28;20207;-84
2023/11/17 07:02:00;;;;;;;3.57;3.20;;;;;;;;;;5109013;28;20179;-84
2023/11/17 07:05:07;;;;;;;3.97;3.10;;;;;;;;;;5108843;28;20183;-84
2023/11/17 07:08:12;;;;;;;3.17;2.80;;;;;;;;;;5091053;28;20171;-84
2023/11/17 07:11:17;;;;;;;6.83;3.10;;;;;;;;;;5104362;28;20535;-84
2023/11/17 07:14:22;;;;;;;4.13;2.60;;;;;;;;;;5091229;28;20182;-84
2023/11/17 07:17:26;;;;;;;7.17;4.70;;;;;;;;;;5103495;28;20210;-84
2023/11/17 07:20:31;;;;;;;31.70;19.87;;;;;;;;;;5090469;28;20183;-84
2023/11/17 07:23:35;;;;;;;10.93;7.47;;;;;;;;;;5102462;28;20175;-84
2023/11/17 07:26:40;;;;;;;3.77;3.40;;;;;;;;;;5089294;28;20219;-84
2023/11/17 07:29:45;;;;;;;3.63;3.17;;;;;;;;;;5101576;28;20183;-84
2023/11/17 07:32:50;;;;;;;3.60;3.00;;;;;;;;;;5101800;28;20212;-84
2023/11/17 07:35:54;;;;;;;5.03;2.87;;;;;;;;;;5100320;28;20218;-84
2023/11/17 07:38:58;;;;;;;4.80;3.30;;;;;;;;;;5100451;28;20206;-84
2023/11/17 07:42:04;;;;;;;5.27;3.60;;;;;;;;;;5099941;28;20187;-84
2023/11/17 07:45:10;;;;;;;4.50;2.57;;;;;;;;;;5101240;28;20555;-84
2023/11/17 07:48:17;;;;;;;4.80;3.07;;;;;;;;;;5100755;28;20178;-84
2023/11/17 07:51:22;;;;;;;9.93;7.73;;;;;;;;;;5101027;28;20175;-84
2023/11/17 07:54:27;;;;;;;7.40;5.60;;;;;;;;;;5089439;28;20539;-84
2023/11/17 07:57:31;;;;;;;7.33;4.20;;;;;;;;;;5089649;28;20218;-84
2023/11/17 08:00:35;;;;;;;6.60;4.00;;;;;;;;;;5089813;28;20171;-84
2023/11/17 08:03:39;;;;;;;8.63;5.17;;;;;;;;;;5101754;28;20199;-84
2023/11/17 08:06:44;;;;;;;6.93;3.30;;;;;;;;;;5101224;28;20687;-84
2023/11/17 08:09:48;;;;;;;2.80;2.57;;;;;;;;;;5100769;28;20183;-84
2023/11/17 08:12:52;;;;;;;2.60;2.40;;;;;;;;;;5102125;28;20183;-84
2023/11/17 08:15:57;;;;;;;5.00;3.20;;;;;;;;;;5101280;28;20691;-84
2023/11/17 08:19:01;;;;;;;2.60;2.17;;;;;;;;;;5088159;28;20206;-84
2023/11/17 08:22:05;;;;;;;3.50;2.37;;;;;;;;;;5100372;28;20205;-84
2023/11/17 08:25:09;;;;;;;2.17;1.97;;;;;;;;;;5102027;28;20182;-84
2023/11/17 08:28:15;;;;;;;4.87;2.87;;;;;;;;;;5087898;28;20178;-84
2023/11/17 08:31:19;;;;;;;4.10;2.10;;;;;;;;;;5099666;28;20187;-84
2023/11/17 08:34:24;;;;;;;3.20;2.37;;;;;;;;;;5088747;28;20182;-84
2023/11/17 08:37:32;;;;;;;3.23;2.90;;;;;;;;;;5100723;28;20690;-84
2023/11/17 08:40:36;;;;;;;5.63;4.50;;;;;;;;;;5087133;28;20168;-84
2023/11/17 08:43:42;;;;;;;7.43;2.57;;;;;;;;;;5097153;28;20631;-84
2023/11/17 08:46:46;;;;;;;4.30;3.70;;;;;;;;;;5096290;28;20214;-84
2023/11/17 08:49:51;;;;;;;4.50;3.17;;;;;;;;;;5097221;28;20182;-84
2023/11/17 08:52:57;;;;;;;5.00;3.13;;;;;;;;;;5098229;28;20183;-84
2023/11/17 08:56:02;;;;;;;3.40;2.20;;;;;;;;;;5086718;28;20226;-84
2023/11/17 08:59:06;;;;;;;2.40;2.17;;;;;;;;;;5097207;28;20198;-86
2023/11/17 09:02:10;;;;;;;4.00;2.13;;;;;;;;;;5095348;28;20623;-86
2023/11/17 09:05:17;;;;;;;5.30;3.40;;;;;;;;;;5095349;28;20174;-86
2023/11/17 09:08:21;;;;;;;6.17;5.57;;;;;;;;;;5095039;28;20171;-86
2023/11/17 09:11:25;;;;;;;5.13;4.63;;;;;;;;;;5095144;28;20182;-86
2023/11/17 09:14:30;;;;;;;3.30;3.00;;;;;;;;;;5084272;28;20543;-86
2023/11/17 09:17:34;;;;;;;3.00;2.30;;;;;;;;;;5095522;28;20218;-86
2023/11/17 09:20:38;;;;;;;3.33;3.03;;;;;;;;;;5100096;28;20175;-86
2023/11/17 09:23:42;;;;;;;5.73;4.60;;;;;;;;;;5099687;28;20186;-86
2023/11/17 09:26:47;;;;;;;3.53;3.23;;;;;;;;;;5099457;28;20210;-85
2023/11/17 09:29:51;;;;;;;2.97;2.30;;;;;;;;;;5099148;28;20179;-86
2023/11/17 09:32:56;;;;;;;2.50;2.30;;;;;;;;;;5089251;28;20179;-86
2023/11/17 09:36:02;;;;;;;4.10;3.07;;;;;;;;;;5100403;28;20570;-86
2023/11/17 09:39:10;;;;;;;5.80;2.50;;;;;;;;;;5099870;28;20203;-86
2023/11/17 09:42:15;;;;;;;3.80;2.40;;;;;;;;;;5075553;28;20631;-86
2023/11/17 09:45:24;;;;;;;3.77;2.40;;;;;;;;;;5098979;28;20547;-86
2023/11/17 09:48:29;;;;;;;3.50;1.90;;;;;;;;;;5099774;28;20187;-86
2023/11/17 09:51:34;;;;;;;2.33;2.13;;;;;;;;;;5099051;28;20179;-86
2023/11/17 09:54:38;;;;;;;3.50;1.70;;;;;;;;;;5099248;28;20178;-86
2023/11/17 09:57:45;;;;;;;3.57;1.70;;;;;;;;;;5086697;28;20226;-86
2023/11/17 10:00:51;;;;;;;2.30;2.10;;;;;;;;;;5087040;28;20179;-86
2023/11/17 10:04:05;;;;;;;2.67;2.10;;;;;;;;;;5098794;28;20555;-86
2023/11/17 10:07:10;;;;;;;2.13;1.80;;;;;;;;;;5099501;28;20215;-86
2023/11/17 10:10:16;;;;;;;2.37;2.03;;;;;;;;;;5086495;28;20535;-86
2023/11/17 10:13:20;;;;;;;4.07;2.93;;;;;;;;;;5097828;28;20183;-86
2023/11/17 10:16:24;;;;;;;3.90;3.53;;;;;;;;;;5098697;28;20222;-85
2023/11/17 10:19:30;;;;;;;3.97;3.57;;;;;;;;;;5085992;28;20215;-85
2023/11/17 10:22:42;;;;;;;3.97;2.70;;;;;;;;;;5098434;28;20182;-86
2023/11/17 10:25:52;;;;;;;2.63;2.23;;;;;;;;;;5097069;28;20214;-86
2023/11/17 10:28:59;;;;;;;6.03;4.57;;;;;;;;;;5096957;28;20175;-86
2023/11/17 10:32:05;;;;;;;4.80;3.30;;;;;;;;;;5097656;28;20182;-86
2023/11/17 10:35:23;;;;;;;2.50;2.00;;;;;;;;;;5097452;28;20182;-86
2023/11/17 10:38:29;;;;;;;3.50;3.10;;;;;;;;;;5097477;28;20175;-86
2023/11/17 10:41:33;;;;;;;5.43;2.90;;;;;;;;;;5074181;28;20187;-86
2023/11/17 10:44:41;;;;;;;3.23;2.90;;;;;;;;;;5097039;28;20178;-86
2023/11/17 10:47:47;;;;;;;4.90;3.27;;;;;;;;;;5098195;28;20687;-86
2023/11/17 10:51:04;;;;;;;3.47;2.73;;;;;;;;;;5096555;28;20183;-86
2023/11/17 10:54:12;;;;;;;4.23;2.93;;;;;;;;;;5096284;28;20179;-86
2023/11/17 10:57:18;;;;;;;3.10;2.70;;;;;;;;;;5084829;28;20218;-86
2023/11/17 11:00:27;;;;;;;7.10;3.93;;;;;;;;;;5096330;28;20206;-86
2023/11/17 11:03:32;;;;;;;6.10;2.80;;;;;;;;;;5084488;28;20199;-86
2023/11/17 11:06:42;;;;;;;4.47;2.73;;;;;;;;;;5096677;28;20214;-86
2023/11/17 11:09:49;;;;;;;3.07;2.70;;;;;;;;;;5084889;28;20168;-86
2023/11/17 11:12:54;;;;;;;4.70;2.77;;;;;;;;;;5097247;28;20198;-86
2023/11/17 11:16:05;;;;;;;3.30;3.00;;;;;;;;;;5096046;28;20218;-86
2023/11/17 11:19:13;;;;;;;3.60;2.67;;;;;;;;;;5084533;28;20202;-86
2023/11/17 11:22:18;;;;;;;4.10;3.70;;;;;;;;;;5096812;28;20183;-86
2023/11/17 11:25:25;;;;;;;5.63;3.43;;;;;;;;;;5095898;28;20179;-86
2023/11/17 11:28:33;;;;;;;12.93;7.80;;;;;;;;;;5096154;28;20547;-86
2023/11/17 11:31:40;;;;;;;3.67;3.30;;;;;;;;;;5095896;28;20171;-86
2023/11/17 11:34:44;;;;;;;3.10;2.80;;;;;;;;;;5097101;28;20183;-86
2023/11/17 11:37:48;;;;;;;3.50;3.10;;;;;;;;;;5095430;28;20218;-86
2023/11/17 11:40:52;;;;;;;5.63;3.00;;;;;;;;;;5083040;28;20206;-86
2023/11/17 11:43:57;;;;;;;5.13;2.93;;;;;;;;;;5096343;28;20187;-86
2023/11/17 11:47:03;;;;;;;4.97;2.97;;;;;;;;;;5096441;28;20218;-86
2023/11/17 11:50:08;;;;;;;5.00;3.80;;;;;;;;;;5096408;28;20179;-86
2023/11/17 11:53:27;;;;;;;4.97;3.73;;;;;;;;;;5095956;28;20183;-86
2023/11/17 11:56:33;;;;;;;4.63;3.27;;;;;;;;;;5095998;28;20586;-86
2023/11/17 11:59:40;;;;;;;4.20;3.20;;;;;;;;;;5095312;28;20202;-86
2023/11/17 12:02:56;;;;;;;4.50;3.73;;;;;;;;;;5083698;28;20183;-86
2023/11/17 12:06:03;;;;;;;4.07;3.20;;;;;;;;;;5095504;28;20210;-86
2023/11/17 12:09:16;;;;;;;3.90;2.80;;;;;;;;;;5073089;28;20183;-86
2023/11/17 12:12:20;;;;;;;3.20;2.90;;;;;;;;;;5084456;28;20539;-86
2023/11/17 12:15:26;;;;;;;3.63;2.90;;;;;;;;;;5095402;28;20178;-86
2023/11/17 12:18:32;;;;;;;3.53;2.80;;;;;;;;;;5095919;28;20179;-86
2023/11/17 12:21:41;;;;;;;4.23;3.50;;;;;;;;;;5094984;28;20163;-86
2023/11/17 12:24:45;;;;;;;3.47;2.90;;;;;;;;;;5095418;28;20187;-86
2023/11/17 12:27:50;;;;;;;3.30;2.90;;;;;;;;;;5095703;28;20706;-86
2023/11/17 12:30:58;;;;;;;4.93;3.30;;;;;;;;;;5083937;28;20175;-86
2023/11/17 12:34:04;;;;;;;5.13;3.20;;;;;;;;;;5094927;28;20535;-86
2023/11/17 12:37:10;;;;;;;8.60;4.20;;;;;;;;;;5083216;28;20214;-86
2023/11/17 12:40:18;;;;;;;5.00;3.83;;;;;;;;;;5094802;28;20202;-86
2023/11/17 12:43:22;;;;;;;7.53;4.70;;;;;;;;;;5082975;28;20183;-86
2023/11/17 12:46:30;;;;;;;5.30;3.53;;;;;;;;;;5094677;28;20214;-86
2023/11/17 12:49:34;;;;;;;3.80;3.20;;;;;;;;;;5094787;28;20179;-86
2023/11/17 12:52:55;;;;;;;3.53;2.73;;;;;;;;;;5071483;28;20179;-86
2023/11/17 12:55:59;;;;;;;3.57;2.80;;;;;;;;;;5071052;28;20223;-86
2023/11/17 12:59:04;;;;;;;4.10;2.63;;;;;;;;;;5083738;28;20175;-86
2023/11/17 13:02:09;;;;;;;3.20;2.90;;;;;;;;;;5095136;28;20163;-86
2023/11/17 13:05:14;;;;;;;6.20;5.60;;;;;;;;;;5093884;28;20555;-86
2023/11/17 13:08:20;;;;;;;4.27;3.33;;;;;;;;;;5094875;28;20179;-86
2023/11/17 13:11:33;;;;;;;17.63;11.73;;;;;;;;;;5094270;28;20183;-86
2023/11/17 13:14:37;;;;;;;9.57;6.80;;;;;;;;;;5094576;28;20175;-86
2023/11/17 13:17:42;;;;;;;3.90;3.13;;;;;;;;;;5093793;28;20218;-86
2023/11/17 13:20:47;;;;;;;6.67;3.27;;;;;;;;;;5082463;28;20675;-86
2023/11/17 13:23:51;;;;;;;5.93;4.40;;;;;;;;;;5082690;28;20187;-86
2023/11/17 13:26:55;;;;;;;4.47;3.53;;;;;;;;;;5093806;28;20222;-86
2023/11/17 13:29:59;;;;;;;4.70;3.37;;;;;;;;;;5082749;28;20175;-86
2023/11/17 13:33:03;;;;;;;5.03;3.87;;;;;;;;;;5093942;28;20183;-86
2023/11/17 13:36:12;;;;;;;7.30;4.07;;;;;;;;;;5082070;28;20222;-86
2023/11/17 13:39:19;;;;;;;3.83;3.40;;;;;;;;;;5093702;28;20179;-86
2023/11/17 13:42:23;;;;;;;4.23;3.60;;;;;;;;;;5082117;28;20167;-86
2023/11/17 13:45:32;;;;;;;4.33;3.90;;;;;;;;;;5094413;28;20182;-86
2023/11/17 13:48:37;;;;;;;5.23;3.30;;;;;;;;;;5094013;28;20179;-86
2023/11/17 13:51:43;;;;;;;4.83;3.20;;;;;;;;;;5093728;28;20175;-86
2023/11/17 13:54:51;;;;;;;4.30;3.30;;;;;;;;;;5094803;28;20179;-86
2023/11/17 13:57:56;;;;;;;4.43;3.70;;;;;;;;;;5093046;28;20210;-86
2023/11/17 14:01:02;;;;;;;5.77;4.00;;;;;;;;;;5081975;28;20198;-86
2023/11/17 14:04:06;;;;;;;7.43;5.50;;;;;;;;;;5094312;28;20207;-86
2023/11/17 14:07:14;;;;;;;7.27;4.73;;;;;;;;;;5097406;28;20661;-86
2023/11/17 14:10:18;;;;;;;13.23;8.60;;;;;;;;;;5097143;28;20539;-86
2023/11/17 14:13:22;;;;;;;9.67;4.97;;;;;;;;;;5097250;28;20187;-85
2023/11/17 14:16:28;;;;;;;5.10;4.57;;;;;;;;;;5096847;28;20215;-86
2023/11/17 14:19:33;;;;;;;6.33;5.67;;;;;;;;;;5085583;28;20183;-86
2023/11/17 14:22:37;;;;;;;3.50;3.20;;;;;;;;;;5096679;28;20627;-86
2023/11/17 14:25:41;;;;;;;5.20;4.70;;;;;;;;;;5096657;28;20628;-86
2023/11/17 14:28:46;;;;;;;3.40;3.10;;;;;;;;;;5096607;28;20178;-86
2023/11/17 14:31:50;;;;;;;7.43;5.80;;;;;;;;;;5073196;28;20179;-86
2023/11/17 14:34:54;;;;;;;13.70;8.57;;;;;;;;;;5084649;28;20174;-86
2023/11/17 14:37:59;;;;;;;15.30;11.03;;;;;;;;;;5072846;28;20186;-86
2023/11/17 14:41:03;;;;;;;5.03;4.40;;;;;;;;;;5097125;28;20211;-86
2023/11/17 14:44:07;;;;;;;3.67;3.30;;;;;;;;;;5095967;28;20187;-86
2023/11/17 14:47:11;;;;;;;4.30;3.90;;;;;;;;;;5096087;28;20214;-86
2023/11/17 14:50:17;;;;;;;3.60;3.30;;;;;;;;;;5084157;28;20178;-86
2023/11/17 14:53:21;;;;;;;3.97;3.20;;;;;;;;;;5072616;28;20186;-86
2023/11/17 14:56:27;;;;;;;4.27;3.20;;;;;;;;;;5084124;28;20218;-86
2023/11/17 14:59:31;;;;;;;5.27;3.77;;;;;;;;;;5084612;28;20547;-86
2023/11/17 15:02:35;;;;;;;4.07;3.67;;;;;;;;;;5096407;28;20213;-86
2023/11/17 15:05:40;;;;;;;5.47;4.53;;;;;;;;;;5085090;28;20182;-86
2023/11/17 15:08:49;;;;;;;15.40;11.13;;;;;;;;;;5097484;28;20187;-86
2023/11/17 15:11:53;;;;;;;5.80;5.07;;;;;;;;;;5098397;28;20493;-86
2023/11/17 15:14:59;;;;;;;6.27;5.20;;;;;;;;;;5096514;28;20183;-86
2023/11/17 15:18:11;;;;;;;7.40;6.70;;;;;;;;;;5097145;28;20179;-86
2023/11/17 15:21:18;;;;;;;6.60;5.03;;;;;;;;;;5097280;28;20203;-86
2023/11/17 15:24:24;;;;;;;4.93;3.80;;;;;;;;;;5097272;28;20183;-86
2023/11/17 15:27:28;;;;;;;4.20;3.63;;;;;;;;;;5085443;28;20210;-86
2023/11/17 15:30:32;;;;;;;4.33;3.90;;;;;;;;;;5084901;28;20178;-86
2023/11/17 15:33:38;;;;;;;4.47;3.77;;;;;;;;;;5084515;28;20182;-86
2023/11/17 15:36:44;;;;;;;5.83;4.40;;;;;;;;;;5095979;28;20215;-87
2023/11/17 15:39:49;;;;;;;3.17;2.87;;;;;;;;;;5084689;28;20183;-86
2023/11/17 15:42:55;;;;;;;4.50;4.10;;;;;;;;;;5085434;28;20171;-86
2023/11/17 15:46:00;;;;;;;4.83;4.33;;;;;;;;;;5096465;28;20222;-86
2023/11/17 15:49:05;;;;;;;10.27;8.03;;;;;;;;;;5084529;28;20179;-85
2023/11/17 15:52:13;;;;;;;9.57;7.57;;;;;;;;;;5096555;28;20167;-86
2023/11/17 15:55:17;;;;;;;5.87;5.27;;;;;;;;;;5097330;28;20183;-86
2023/11/17 15:58:22;;;;;;;5.60;4.70;;;;;;;;;;5074100;28;20179;-86
2023/11/17 16:01:26;;;;;;;4.80;4.03;;;;;;;;;;5096271;28;20215;-86
2023/11/17 16:04:30;;;;;;;5.60;4.43;;;;;;;;;;5084349;28;20183;-86
2023/11/17 16:07:34;;;;;;;10.77;9.40;;;;;;;;;;5095781;28;20210;-86
2023/11/17 16:10:38;;;;;;;8.03;6.67;;;;;;;;;;5096398;28;20540;-86
2023/11/17 16:13:43;;;;;;;28.20;22.17;;;;;;;;;;5095981;28;20183;-86
2023/11/17 16:16:50;;;;;;;7.40;6.70;;;;;;;;;;5096865;28;20210;-86
2023/11/17 16:19:55;;;;;;;5.77;4.87;;;;;;;;;;5084632;28;20178;-86
2023/11/17 16:23:00;;;;;;;3.50;3.03;;;;;;;;;;5095510;28;20535;-86
2023/11/17 16:26:05;;;;;;;4.50;3.33;;;;;;;;;;5083363;28;20214;-86
2023/11/17 16:29:09;;;;;;;4.80;3.90;;;;;;;;;;5095292;28;20179;-86
2023/11/17 16:32:13;;;;;;;7.50;5.90;;;;;;;;;;5083869;28;20607;-86
2023/11/17 16:35:19;;;;;;;7.43;5.10;;;;;;;;;;5094714;28;20187;-87
2023/11/17 16:38:26;;;;;;;11.13;7.40;;;;;;;;;;5095202;28;20624;-86
2023/11/17 16:41:31;;;;;;;9.20;5.23;;;;;;;;;;5083064;28;20202;-86
2023/11/17 16:44:37;;;;;;;4.83;3.80;;;;;;;;;;5083161;28;20624;-86
2023/11/17 16:47:41;;;;;;;6.10;4.03;;;;;;;;;;5094518;28;20222;-86
2023/11/17 16:50:47;;;;;;;4.23;3.40;;;;;;;;;;5082670;28;20642;-86
2023/11/17 16:53:51;;;;;;;3.30;2.93;;;;;;;;;;5094796;28;20179;-86
2023/11/17 16:56:55;;;;;;;4.03;3.40;;;;;;;;;;5093626;28;20229;-86
2023/11/17 17:00:00;;;;;;;10.90;8.73;;;;;;;;;;5095313;28;20178;-86
2023/11/17 17:03:05;;;;;;;10.43;7.27;;;;;;;;;;5094398;28;20191;-86
2023/11/17 17:06:12;;;;;;;4.13;3.23;;;;;;;;;;5093839;28;20695;-86
2023/11/17 17:09:20;;;;;;;4.90;3.30;;;;;;;;;;5094653;28;20175;-86
2023/11/17 17:12:24;;;;;;;5.83;5.00;;;;;;;;;;5093743;28;20174;-86
2023/11/17 17:15:31;;;;;;;3.80;3.40;;;;;;;;;;5082301;28;20179;-86
2023/11/17 17:18:35;;;;;;;3.40;3.10;;;;;;;;;;5070485;28;20627;-86
2023/11/17 17:21:40;;;;;;;5.13;2.90;;;;;;;;;;5093679;28;20214;-86
2023/11/17 17:24:45;;;;;;;5.60;5.00;;;;;;;;;;5081680;28;20175;-86
2023/11/17 17:27:53;;;;;;;7.57;6.13;;;;;;;;;;5081499;28;20598;-86
2023/11/17 17:30:57;;;;;;;5.23;4.37;;;;;;;;;;5093591;28;20175;-86
2023/11/17 17:34:02;;;;;;;6.03;4.10;;;;;;;;;;5093329;28;20179;-86
2023/11/17 17:37:06;;;;;;;5.30;4.80;;;;;;;;;;5093199;28;20214;-86
2023/11/17 17:40:11;;;;;;;4.13;2.87;;;;;;;;;;5084604;28;20557;-86
2023/11/17 17:43:16;;;;;;;3.70;2.97;;;;;;;;;;5097200;28;20171;-86
2023/11/17 17:46:22;;;;;;;3.77;3.10;;;;;;;;;;5098226;28;20686;-86
2023/11/17 17:49:26;;;;;;;5.67;3.43;;;;;;;;;;5098053;28;20183;-86
2023/11/17 17:52:31;;;;;;;3.93;3.30;;;;;;;;;;5098270;28;20175;-86
2023/11/17 17:55:35;;;;;;;4.27;3.20;;;;;;;;;;5097114;28;20183;-87
2023/11/17 17:58:39;;;;;;;5.17;4.67;;;;;;;;;;5085555;28;20179;-86
2023/11/17 18:01:44;;;;;;;5.50;4.20;;;;;;;;;;5074133;28;20211;-86
2023/11/17 18:04:48;;;;;;;8.20;5.93;;;;;;;;;;5096835;28;20183;-86
2023/11/17 18:07:52;;;;;;;5.57;4.37;;;;;;;;;;5096694;28;20605;-86
2023/11/17 18:10:57;;;;;;;5.93;4.40;;;;;;;;;;5096560;28;20183;-86
2023/11/17 18:14:02;;;;;;;5.00;4.23;;;;;;;;;;5096606;28;20620;-86
2023/11/17 18:17:08;;;;;;;8.20;5.23;;;;;;;;;;5084683;28;20586;-86
2023/11/17 18:20:14;;;;;;;9.70;6.63;;;;;;;;;;5097249;28;20187;-86
2023/11/17 18:23:18;;;;;;;7.37;5.30;;;;;;;;;;5096902;28;20510;-86
2023/11/17 18:26:23;;;;;;;8.73;7.17;;;;;;;;;;5097188;28;20218;-86
2023/11/17 18:29:29;;;;;;;8.90;7.27;;;;;;;;;;5096256;28;20178;-86
2023/11/17 18:32:33;;;;;;;8.13;6.50;;;;;;;;;;5096528;28;20222;-86
2023/11/17 18:35:38;;;;;;;9.03;6.40;;;;;;;;;;5096957;28;20194;-85